• Join FlightAware (Why Join?)
  • Login
  • US Flag 
10:40AM EDT


 

Airport Tracker/Info


-or-


 

Live Flight TrackerFlight Track Log ✈ SWA2169 ✈ 02-May-2014 ✈ KSMF - KSNA

Flight Track Log - Related Links

Times and Time Zones

All times are in EDT time to prevent confusion due to time zone crossing. See the SWA2169 flight status page for this flight to view local times or setup timezone preferences in your user account.

Time Position Orientation Groundspeed Altitude Reporting Facility
EDT Latitude Longitude Course Direction KTS MPH feet Rate Location/Type
12:13PM 38.6333 -121.5333 123° Southeast 218 251 3,300  Level Northern Cal TRACON
12:15PM 38.5428 -121.3456 122° Southeast 284 327 10,700 2,940 Climbing Oakland Center
12:16PM 38.4944 -121.2436 121° Southeast 332 382 13,400 2,820 Climbing Oakland Center
12:17PM 38.4456 -121.1381 121° Southeast 354 407 16,500 2,820 Climbing Oakland Center
12:18PM 38.3917 -121.0231 121° Southeast 375 432 19,300 2,940 Climbing Oakland Center
12:20PM 38.3214 -120.8758 121° Southeast 400 460 22,600 2,340 Climbing Oakland Center
12:21PM 38.2614 -120.7500 121° Southeast 413 475 24,200 1,860 Climbing Oakland Center
12:22PM 38.1850 -120.6375 131° Southeast 418 481 26,500 2,220 Climbing Oakland Center
12:23PM 38.0875 -120.5444 143° Southeast 431 496 28,800 1,800 Climbing Oakland Center
12:24PM 37.9897 -120.4489 142° Southeast 440 506 30,300 1,380 Climbing Oakland Center
12:25PM 37.8878 -120.3506 143° Southeast 455 524 31,700 1,560 Climbing Oakland Center
12:26PM 37.7856 -120.2486 142° Southeast 467 537 33,600 1,680 Climbing Oakland Center
12:27PM 37.6808 -120.1483 143° Southeast 469 540 35,200 1,560 Climbing Oakland Center
12:28PM 37.5561 -120.0275 142° Southeast 470 541 36,900 840 Climbing Oakland Center
12:29PM 37.4422 -119.9467 151° Southeast 473 544 37,000 420 Climbing Oakland Center
12:30PM 37.3156 -119.9147 169° South 467 537 37,800 960 Climbing Oakland Center
12:31PM 37.1883 -119.8867 170° South 466 536 39,000 540 Climbing Oakland Center
12:32PM 37.0561 -119.8583 170° South 465 535 39,000  Level Oakland Center
12:33PM 36.9300 -119.8281 169° South 464 534 39,000  Level Oakland Center
12:34PM 36.8028 -119.8014 170° South 464 534 39,000  Level Oakland Center
12:35PM 36.6769 -119.7711 169° South 464 534 39,000  Level Oakland Center
12:36PM 36.5500 -119.7422 170° South 463 533 39,000  Level Oakland Center
12:37PM 36.4233 -119.7136 170° South 463 533 39,000  Level Oakland Center
12:38PM 36.2711 -119.6800 170° South 462 532 39,000  Level Oakland Center
12:39PM 36.1439 -119.6517 170° South 462 532 39,000  Level Oakland Center
12:40PM 36.0167 -119.6239 170° South 463 533 39,000  Level Oakland Center
12:41PM 35.8875 -119.6194 178° South 467 537 39,000  Level Oakland Center
12:42PM 35.7583 -119.6239 182° South 466 536 39,000  Level Oakland Center
12:43PM 35.6286 -119.6294 182° South 466 536 39,000  Level Oakland Center
12:44PM 35.5236 -119.6333 182° South 466 536 39,000  Level Los Angeles Center
12:45PM 35.3678 -119.6383 181° South 465 535 39,000  Level Los Angeles Center
12:46PM 35.2403 -119.6225 174° South 469 540 39,000  Level Los Angeles Center
12:47PM 35.1328 -119.5350 146° Southeast 465 535 39,000  Level Los Angeles Center
12:48PM 35.0272 -119.4444 145° Southeast 465 535 39,000 -60 Level Los Angeles Center
12:49PM 34.9203 -119.3553 146° Southeast 465 535 38,900 -1,500 Descending Los Angeles Center
12:50PM 34.8144 -119.2633 144° Southeast 465 535 35,900 -3,180 Descending Los Angeles Center
12:51PM 34.6836 -119.1528 145° Southeast 474 545 32,400 -3,420 Descending Los Angeles Center
12:52PM 34.5697 -119.0622 147° Southeast 474 545 28,900 -3,000 Descending Los Angeles Center
12:53PM 34.4633 -118.9711 145° Southeast 473 544 26,200 -2,760 Descending Los Angeles Center
12:54PM 34.3575 -118.8847 146° Southeast 464 534 23,300 -2,520 Descending Los Angeles Center
12:55PM 34.2436 -118.8403 162° South 429 494 21,000 -2,160 Descending Los Angeles Center
12:56PM 34.1342 -118.7997 163° South 411 473 18,900 -2,220 Descending Los Angeles Center
12:57PM 34.0094 -118.7533 163° South 398 458 16,400 -2,280 Descending Los Angeles Center
12:58PM 33.9106 -118.7167 163° South 379 436 14,200 -1,200 Descending Los Angeles Center
01:00PM 33.8142 -118.6833 164° South 363 418 14,000 -540 Descending Los Angeles Center
01:01PM 33.7208 -118.6492 163° South 358 412 13,200 -1,500 Descending Los Angeles Center
01:02PM 33.6492 -118.5850 143° Southeast 339 390 10,900 -2,040 Descending Los Angeles Center
01:03PM 33.5925 -118.4839 124° Southeast 306 352 9,000 -1,800 Descending Los Angeles Center
01:04PM 33.5489 -118.4083 125° Southeast 284 327 7,200 -1,740 Descending Los Angeles Center
01:05PM 33.5211 -118.3258 112° Southeast 281 323 5,400 -1,080 Descending Los Angeles Center
01:06PM 33.5439 -118.2494 70° East 267 307 5,000 -240 Descending Los Angeles Center
01:07PM 33.5911 -118.1764 52° Northeast 244 281 5,000  Level Los Angeles Center
01:08PM 33.6300 -118.1164 52° Northeast 235 270 5,000  Level Los Angeles Center
01:09PM 33.6686 -118.0553 53° Northeast 234 269 5,000  Level Los Angeles Center
01:10PM 33.7075 -117.9950 52° Northeast 234 269 5,000 -240 Level Los Angeles Center
01:11PM 33.7467 -117.9347 52° Northeast 232 267 4,600 -720 Descending Los Angeles Center
01:12PM 33.7950 -117.8692 48° Northeast 223 257 3,500 -1,020 Descending Los Angeles Center
01:13PM 33.7894 -117.8169 97° East 181 208 2,600 -900 Descending Los Angeles Center
01:14PM 33.7500 -117.8219 186° South 175 201 1,700 -900 Descending Los Angeles Center
01:15PM 33.7153 -117.8436 207° Southwest 155 178 800 -780 Descending Los Angeles Center
01:16PM 33.6833 -117.8631 207° Southwest 141 162 100 -720 Descending Los Angeles Center